sensor_id;sensor_type;location;lat;lon;timestamp;pressure;altitude;pressure_sealevel;temperature;humidity
79006;BME280;69202;45.498;-73.582;2023-07-22T00:01:02;99815.00;;;23.92;56.62
79006;BME280;69202;45.498;-73.582;2023-07-22T00:03:28;99684.19;;;23.15;56.57
79006;BME280;69202;45.498;-73.582;2023-07-22T00:06:08;99817.13;;;23.95;56.35
79006;BME280;69202;45.498;-73.582;2023-07-22T00:08:35;99736.34;;;23.39;56.72
79006;BME280;69202;45.498;-73.582;2023-07-22T00:11:02;99758.59;;;23.56;56.78
79006;BME280;69202;45.498;-73.582;2023-07-22T00:13:29;99819.81;;;23.86;56.31
79006;BME280;69202;45.498;-73.582;2023-07-22T00:15:55;99688.88;;;23.01;57.30
79006;BME280;69202;45.498;-73.582;2023-07-22T00:18:21;99547.75;;;22.03;57.31
79006;BME280;69202;45.498;-73.582;2023-07-22T00:20:47;99673.81;;;22.80;57.43
79006;BME280;69202;45.498;-73.582;2023-07-22T00:23:15;99742.47;;;23.22;57.61
79006;BME280;69202;45.498;-73.582;2023-07-22T00:25:41;99817.59;;;23.60;57.95
79006;BME280;69202;45.498;-73.582;2023-07-22T00:28:07;99688.84;;;22.73;58.18
79006;BME280;69202;45.498;-73.582;2023-07-22T00:30:33;99768.03;;;23.14;58.28
79006;BME280;69202;45.498;-73.582;2023-07-22T00:33:00;99799.59;;;23.22;58.15
79006;BME280;69202;45.498;-73.582;2023-07-22T00:35:26;99662.38;;;22.31;58.13
79006;BME280;69202;45.498;-73.582;2023-07-22T00:37:52;99706.56;;;22.54;59.02
79006;BME280;69202;45.498;-73.582;2023-07-22T00:40:18;99693.34;;;22.23;59.77
79006;BME280;69202;45.498;-73.582;2023-07-22T00:42:44;99832.97;;;23.07;58.89
79006;BME280;69202;45.498;-73.582;2023-07-22T00:45:10;99716.47;;;22.41;58.07
79006;BME280;69202;45.498;-73.582;2023-07-22T00:47:38;99811.81;;;22.88;57.98
79006;BME280;69202;45.498;-73.582;2023-07-22T00:50:07;99828.09;;;23.03;57.66
79006;BME280;69202;45.498;-73.582;2023-07-22T00:52:33;99792.22;;;22.71;58.47
79006;BME280;69202;45.498;-73.582;2023-07-22T00:54:59;99796.28;;;22.60;58.55
79006;BME280;69202;45.498;-73.582;2023-07-22T00:57:25;99838.63;;;22.83;60.01
79006;BME280;69202;45.498;-73.582;2023-07-22T00:59:52;99816.47;;;22.55;60.65
79006;BME280;69202;45.498;-73.582;2023-07-22T01:02:19;99762.56;;;22.16;61.24
79006;BME280;69202;45.498;-73.582;2023-07-22T01:04:45;99762.69;;;21.87;62.22
79006;BME280;69202;45.498;-73.582;2023-07-22T01:07:12;99822.53;;;22.19;61.60
79006;BME280;69202;45.498;-73.582;2023-07-22T01:09:40;99865.31;;;22.50;61.26
79006;BME280;69202;45.498;-73.582;2023-07-22T01:12:07;99873.84;;;22.34;60.33
79006;BME280;69202;45.498;-73.582;2023-07-22T01:14:38;99875.56;;;22.30;61.99
79006;BME280;69202;45.498;-73.582;2023-07-22T01:17:05;99827.22;;;22.00;62.47
79006;BME280;69202;45.498;-73.582;2023-07-22T01:19:35;99827.72;;;22.02;62.67
79006;BME280;69202;45.498;-73.582;2023-07-22T01:22:03;99833.91;;;21.94;62.83
79006;BME280;69202;45.498;-73.582;2023-07-22T01:24:30;99876.78;;;22.19;63.01
79006;BME280;69202;45.498;-73.582;2023-07-22T01:26:56;99819.41;;;21.88;63.46
79006;BME280;69202;45.498;-73.582;2023-07-22T01:29:23;99716.59;;;21.18;63.03
79006;BME280;69202;45.498;-73.582;2023-07-22T01:31:53;99880.81;;;22.27;62.94
79006;BME280;69202;45.498;-73.582;2023-07-22T01:34:20;99845.56;;;22.10;62.80
79006;BME280;69202;45.498;-73.582;2023-07-22T01:36:47;99709.69;;;21.20;61.44
79006;BME280;69202;45.498;-73.582;2023-07-22T01:39:17;99868.63;;;22.14;62.11
79006;BME280;69202;45.498;-73.582;2023-07-22T01:41:44;99838.59;;;21.94;62.85
79006;BME280;69202;45.498;-73.582;2023-07-22T01:44:10;99745.03;;;21.32;63.39
79006;BME280;69202;45.498;-73.582;2023-07-22T01:46:38;99698.63;;;21.01;63.72
79006;BME280;69202;45.498;-73.582;2023-07-22T01:49:06;99883.72;;;22.16;64.25
79006;BME280;69202;45.498;-73.582;2023-07-22T01:51:34;99867.34;;;22.06;64.78
79006;BME280;69202;45.498;-73.582;2023-07-22T01:53:59;99869.22;;;22.11;65.05
79006;BME280;69202;45.498;-73.582;2023-07-22T01:56:26;99867.84;;;22.08;64.89
79006;BME280;69202;45.498;-73.582;2023-07-22T01:58:52;99835.75;;;21.80;63.80
79006;BME280;69202;45.498;-73.582;2023-07-22T02:01:18;99796.69;;;21.35;63.53
79006;BME280;69202;45.498;-73.582;2023-07-22T02:03:44;99747.69;;;21.13;62.59
79006;BME280;69202;45.498;-73.582;2023-07-22T02:06:10;99866.88;;;21.75;63.87
79006;BME280;69202;45.498;-73.582;2023-07-22T02:08:36;99843.16;;;21.60;64.51
79006;BME280;69202;45.498;-73.582;2023-07-22T02:11:04;99857.59;;;21.71;64.77
79006;BME280;69202;45.498;-73.582;2023-07-22T02:13:31;99849.94;;;21.68;65.63
79006;BME280;69202;45.498;-73.582;2023-07-22T02:15:57;99856.25;;;21.69;66.01
79006;BME280;69202;45.498;-73.582;2023-07-22T02:18:24;99777.53;;;21.25;66.01
79006;BME280;69202;45.498;-73.582;2023-07-22T02:20:50;99790.44;;;21.29;66.03
79006;BME280;69202;45.498;-73.582;2023-07-22T02:23:16;99860.66;;;21.70;66.38
79006;BME280;69202;45.498;-73.582;2023-07-22T02:25:42;99815.28;;;21.43;66.85
79006;BME280;69202;45.498;-73.582;2023-07-22T02:28:08;99840.41;;;21.60;66.55
79006;BME280;69202;45.498;-73.582;2023-07-22T02:30:35;99703.19;;;20.63;65.38
79006;BME280;69202;45.498;-73.582;2023-07-22T02:33:02;99686.94;;;20.38;65.41
79006;BME280;69202;45.498;-73.582;2023-07-22T02:35:28;99699.44;;;20.54;66.02
79006;BME280;69202;45.498;-73.582;2023-07-22T02:37:54;99854.88;;;21.47;66.24
79006;BME280;69202;45.498;-73.582;2023-07-22T02:40:20;99702.91;;;20.31;66.09
79006;BME280;69202;45.498;-73.582;2023-07-22T02:42:46;99841.88;;;21.24;66.46
79006;BME280;69202;45.498;-73.582;2023-07-22T02:45:15;99846.84;;;21.22;67.08
79006;BME280;69202;45.498;-73.582;2023-07-22T02:47:41;99722.13;;;20.31;67.39
79006;BME280;69202;45.498;-73.582;2023-07-22T02:50:07;99705.94;;;20.34;67.83
79006;BME280;69202;45.498;-73.582;2023-07-22T02:52:34;99505.06;;;19.06;67.21
79006;BME280;69202;45.498;-73.582;2023-07-22T02:55:14;99732.97;;;20.51;66.47
79006;BME280;69202;45.498;-73.582;2023-07-22T02:57:41;99855.09;;;21.27;65.88
79006;BME280;69202;45.498;-73.582;2023-07-22T03:00:08;99743.88;;;20.27;66.34
79006;BME280;69202;45.498;-73.582;2023-07-22T03:02:35;99674.84;;;20.10;65.96
79006;BME280;69202;45.498;-73.582;2023-07-22T03:05:01;99853.16;;;21.22;66.76
79006;BME280;69202;45.498;-73.582;2023-07-22T03:07:28;99815.88;;;20.87;66.93
79006;BME280;69202;45.498;-73.582;2023-07-22T03:09:54;99669.50;;;19.89;67.40
79006;BME280;69202;45.498;-73.582;2023-07-22T03:12:20;99743.28;;;20.30;67.28
79006;BME280;69202;45.498;-73.582;2023-07-22T03:14:46;99775.63;;;20.43;67.44
79006;BME280;69202;45.498;-73.582;2023-07-22T03:17:12;99556.22;;;19.21;67.36
79006;BME280;69202;45.498;-73.582;2023-07-22T03:19:41;99741.00;;;20.42;67.07
79006;BME280;69202;45.498;-73.582;2023-07-22T03:22:07;99884.44;;;21.31;66.87
79006;BME280;69202;45.498;-73.582;2023-07-22T03:24:33;99799.03;;;20.94;67.43
79006;BME280;69202;45.498;-73.582;2023-07-22T03:26:59;99864.63;;;21.35;67.72
79006;BME280;69202;45.498;-73.582;2023-07-22T03:29:27;99850.72;;;21.26;67.74
79006;BME280;69202;45.498;-73.582;2023-07-22T03:31:53;99605.00;;;19.63;67.67
79006;BME280;69202;45.498;-73.582;2023-07-22T03:34:22;99802.16;;;20.82;67.78
79006;BME280;69202;45.498;-73.582;2023-07-22T03:36:48;99884.75;;;21.30;68.11
79006;BME280;69202;45.498;-73.582;2023-07-22T03:39:14;99721.81;;;20.37;68.17
79006;BME280;69202;45.498;-73.582;2023-07-22T03:41:40;99797.50;;;20.83;68.28
79006;BME280;69202;45.498;-73.582;2023-07-22T03:44:06;99632.00;;;19.80;68.09
79006;BME280;69202;45.498;-73.582;2023-07-22T03:46:35;99501.78;;;19.04;68.18
79006;BME280;69202;45.498;-73.582;2023-07-22T03:49:01;99744.84;;;20.46;67.82
79006;BME280;69202;45.498;-73.582;2023-07-22T03:51:27;99565.47;;;19.30;67.10
79006;BME280;69202;45.498;-73.582;2023-07-22T03:53:53;99609.88;;;19.71;66.73
79006;BME280;69202;45.498;-73.582;2023-07-22T03:56:19;99536.94;;;18.97;66.19
79006;BME280;69202;45.498;-73.582;2023-07-22T03:58:45;99834.13;;;21.02;66.94
79006;BME280;69202;45.498;-73.582;2023-07-22T04:01:12;99630.94;;;19.76;67.40
79006;BME280;69202;45.498;-73.582;2023-07-22T04:03:38;99802.53;;;20.75;68.38
79006;BME280;69202;45.498;-73.582;2023-07-22T04:06:04;99836.53;;;21.09;68.51
79006;BME280;69202;45.498;-73.582;2023-07-22T04:08:30;99840.50;;;20.97;68.59
79006;BME280;69202;45.498;-73.582;2023-07-22T04:10:57;99503.31;;;18.86;68.32
79006;BME280;69202;45.498;-73.582;2023-07-22T04:13:24;99835.97;;;21.12;68.41
79006;BME280;69202;45.498;-73.582;2023-07-22T04:15:51;99546.00;;;19.31;68.11
79006;BME280;69202;45.498;-73.582;2023-07-22T04:18:18;99436.91;;;18.65;67.93
79006;BME280;69202;45.498;-73.582;2023-07-22T04:20:44;99650.03;;;19.91;68.26
79006;BME280;69202;45.498;-73.582;2023-07-22T04:23:11;99845.28;;;21.16;68.57
79006;BME280;69202;45.498;-73.582;2023-07-22T04:25:41;99858.19;;;21.15;68.25
79006;BME280;69202;45.498;-73.582;2023-07-22T04:28:10;99833.50;;;21.10;68.32
79006;BME280;69202;45.498;-73.582;2023-07-22T04:30:36;99670.22;;;20.05;68.48
79006;BME280;69202;45.498;-73.582;2023-07-22T04:33:03;99832.97;;;21.08;68.38
79006;BME280;69202;45.498;-73.582;2023-07-22T04:35:36;99835.44;;;21.10;68.42
79006;BME280;69202;45.498;-73.582;2023-07-22T04:38:02;99665.31;;;20.02;68.08
79006;BME280;69202;45.498;-73.582;2023-07-22T04:40:29;99647.75;;;20.03;67.79
79006;BME280;69202;45.498;-73.582;2023-07-22T04:42:56;99545.03;;;19.46;67.04
79006;BME280;69202;45.498;-73.582;2023-07-22T04:45:22;99810.59;;;21.20;67.62
79006;BME280;69202;45.498;-73.582;2023-07-22T04:47:52;99697.22;;;20.56;67.56
79006;BME280;69202;45.498;-73.582;2023-07-22T04:50:18;99588.88;;;19.91;67.64
79006;BME280;69202;45.498;-73.582;2023-07-22T04:52:45;99437.34;;;18.78;67.74
79006;BME280;69202;45.498;-73.582;2023-07-22T04:55:12;99528.06;;;19.44;68.12
79006;BME280;69202;45.498;-73.582;2023-07-22T04:57:39;99759.09;;;20.78;67.41
79006;BME280;69202;45.498;-73.582;2023-07-22T05:00:11;99755.34;;;20.92;66.97
79006;BME280;69202;45.498;-73.582;2023-07-22T05:02:40;99809.16;;;21.27;66.11
79006;BME280;69202;45.498;-73.582;2023-07-22T05:05:07;99760.19;;;21.06;66.39
79006;BME280;69202;45.498;-73.582;2023-07-22T05:07:33;99634.66;;;20.24;67.14
79006;BME280;69202;45.498;-73.582;2023-07-22T05:09:58;99469.53;;;19.30;67.47
79006;BME280;69202;45.498;-73.582;2023-07-22T05:12:24;99485.13;;;19.35;67.79
79006;BME280;69202;45.498;-73.582;2023-07-22T05:14:50;99674.97;;;20.58;67.86
79006;BME280;69202;45.498;-73.582;2023-07-22T05:17:16;99682.59;;;20.61;68.01
79006;BME280;69202;45.498;-73.582;2023-07-22T05:19:43;99574.66;;;19.83;67.89
79006;BME280;69202;45.498;-73.582;2023-07-22T05:22:10;99602.53;;;20.25;67.65
79006;BME280;69202;45.498;-73.582;2023-07-22T05:24:35;99675.97;;;20.67;67.21
79006;BME280;69202;45.498;-73.582;2023-07-22T05:27:01;99804.53;;;21.47;67.66
79006;BME280;69202;45.498;-73.582;2023-07-22T05:29:27;99809.31;;;21.36;68.26
79006;BME280;69202;45.498;-73.582;2023-07-22T05:31:53;99678.19;;;20.65;68.08
79006;BME280;69202;45.498;-73.582;2023-07-22T05:34:19;99586.78;;;20.06;67.58
79006;BME280;69202;45.498;-73.582;2023-07-22T05:36:45;99740.38;;;21.03;68.01
79006;BME280;69202;45.498;-73.582;2023-07-22T05:39:11;99540.94;;;19.83;67.98
79006;BME280;69202;45.498;-73.582;2023-07-22T05:41:37;99675.88;;;20.48;68.02
79006;BME280;69202;45.498;-73.582;2023-07-22T05:44:03;99770.91;;;21.02;68.45
79006;BME280;69202;45.498;-73.582;2023-07-22T05:46:29;99673.09;;;20.53;69.25
79006;BME280;69202;45.498;-73.582;2023-07-22T05:48:55;99810.91;;;21.13;69.36
79006;BME280;69202;45.498;-73.582;2023-07-22T05:51:21;99584.31;;;19.76;69.08
79006;BME280;69202;45.498;-73.582;2023-07-22T05:53:48;99557.47;;;19.73;69.04
79006;BME280;69202;45.498;-73.582;2023-07-22T05:56:13;99396.75;;;18.85;68.86
79006;BME280;69202;45.498;-73.582;2023-07-22T05:58:39;99797.44;;;21.17;68.80
79006;BME280;69202;45.498;-73.582;2023-07-22T06:01:05;99566.13;;;19.85;69.22
79006;BME280;69202;45.498;-73.582;2023-07-22T06:03:31;99658.06;;;20.40;69.59
79006;BME280;69202;45.498;-73.582;2023-07-22T06:05:57;99783.22;;;21.10;69.57
79006;BME280;69202;45.498;-73.582;2023-07-22T06:08:23;99716.75;;;20.79;69.73
79006;BME280;69202;45.498;-73.582;2023-07-22T06:10:52;99521.31;;;19.31;70.18
79006;BME280;69202;45.498;-73.582;2023-07-22T06:13:17;99669.13;;;20.35;70.43
79006;BME280;69202;45.498;-73.582;2023-07-22T06:15:43;99441.38;;;18.90;70.38
79006;BME280;69202;45.498;-73.582;2023-07-22T06:18:09;99526.44;;;19.43;70.62
79006;BME280;69202;45.498;-73.582;2023-07-22T06:20:35;99455.94;;;19.20;70.66
79006;BME280;69202;45.498;-73.582;2023-07-22T06:23:05;99771.50;;;21.23;69.01
79006;BME280;69202;45.498;-73.582;2023-07-22T06:25:31;99780.38;;;21.15;69.64
79006;BME280;69202;45.498;-73.582;2023-07-22T06:27:57;99682.03;;;20.64;70.18
79006;BME280;69202;45.498;-73.582;2023-07-22T06:30:23;99698.94;;;20.76;69.82
79006;BME280;69202;45.498;-73.582;2023-07-22T06:32:49;99741.19;;;21.04;71.16
79006;BME280;69202;45.498;-73.582;2023-07-22T06:35:15;99730.09;;;20.90;71.00
79006;BME280;69202;45.498;-73.582;2023-07-22T06:37:41;99435.53;;;19.02;71.10
79006;BME280;69202;45.498;-73.582;2023-07-22T06:40:07;99417.75;;;18.99;71.07
79006;BME280;69202;45.498;-73.582;2023-07-22T06:42:33;99610.56;;;20.16;71.88
79006;BME280;69202;45.498;-73.582;2023-07-22T06:44:59;99669.69;;;20.61;72.02
79006;BME280;69202;45.498;-73.582;2023-07-22T06:47:28;99740.88;;;20.87;71.72
79006;BME280;69202;45.498;-73.582;2023-07-22T06:49:54;99348.81;;;18.48;71.17
79006;BME280;69202;45.498;-73.582;2023-07-22T06:52:20;99770.06;;;20.78;71.23
79006;BME280;69202;45.498;-73.582;2023-07-22T06:54:46;99776.06;;;21.09;70.47
79006;BME280;69202;45.498;-73.582;2023-07-22T06:57:12;99769.97;;;21.12;70.59
79006;BME280;69202;45.498;-73.582;2023-07-22T06:59:38;99680.25;;;20.49;70.18
79006;BME280;69202;45.498;-73.582;2023-07-22T07:02:04;99444.53;;;18.68;71.52
79006;BME280;69202;45.498;-73.582;2023-07-22T07:04:33;99407.72;;;18.85;71.09
79006;BME280;69202;45.498;-73.582;2023-07-22T07:06:59;99746.25;;;20.97;71.62
79006;BME280;69202;45.498;-73.582;2023-07-22T07:09:25;99680.75;;;20.56;72.62
79006;BME280;69202;45.498;-73.582;2023-07-22T07:11:51;99628.91;;;20.21;72.30
79006;BME280;69202;45.498;-73.582;2023-07-22T07:14:18;99592.53;;;19.81;72.11
79006;BME280;69202;45.498;-73.582;2023-07-22T07:16:44;99606.28;;;20.05;71.89
79006;BME280;69202;45.498;-73.582;2023-07-22T07:19:10;99537.34;;;19.48;70.49
79006;BME280;69202;45.498;-73.582;2023-07-22T07:21:36;99785.75;;;21.01;73.04
79006;BME280;69202;45.498;-73.582;2023-07-22T07:24:02;99704.66;;;20.56;73.72
79006;BME280;69202;45.498;-73.582;2023-07-22T07:26:28;99663.97;;;20.29;73.84
79006;BME280;69202;45.498;-73.582;2023-07-22T07:28:54;99661.31;;;20.18;72.34
79006;BME280;69202;45.498;-73.582;2023-07-22T07:31:20;99705.16;;;20.58;72.73
79006;BME280;69202;45.498;-73.582;2023-07-22T07:33:46;99609.50;;;19.83;72.79
79006;BME280;69202;45.498;-73.582;2023-07-22T07:36:12;99407.44;;;18.42;72.87
79006;BME280;69202;45.498;-73.582;2023-07-22T07:38:38;99773.47;;;20.93;72.35
79006;BME280;69202;45.498;-73.582;2023-07-22T07:41:05;99662.41;;;20.17;72.85
79006;BME280;69202;45.498;-73.582;2023-07-22T07:43:37;99764.97;;;20.95;73.28
79006;BME280;69202;45.498;-73.582;2023-07-22T07:46:32;99776.19;;;20.98;73.26
79006;BME280;69202;45.498;-73.582;2023-07-22T07:49:00;99738.13;;;20.58;72.57
79006;BME280;69202;45.498;-73.582;2023-07-22T07:51:27;99544.91;;;19.32;73.09
79006;BME280;69202;45.498;-73.582;2023-07-22T07:53:55;99747.47;;;20.57;73.69
79006;BME280;69202;45.498;-73.582;2023-07-22T07:56:21;99777.44;;;20.82;73.37
79006;BME280;69202;45.498;-73.582;2023-07-22T07:58:49;99642.25;;;20.03;72.98
79006;BME280;69202;45.498;-73.582;2023-07-22T08:01:15;99706.38;;;20.46;72.68
79006;BME280;69202;45.498;-73.582;2023-07-22T08:03:43;99743.28;;;20.64;73.22
79006;BME280;69202;45.498;-73.582;2023-07-22T08:06:09;99764.78;;;20.86;73.85
79006;BME280;69202;45.498;-73.582;2023-07-22T08:08:36;99771.38;;;20.85;73.78
79006;BME280;69202;45.498;-73.582;2023-07-22T08:11:12;99738.03;;;20.68;73.10
79006;BME280;69202;45.498;-73.582;2023-07-22T08:13:39;99784.81;;;20.87;73.12
79006;BME280;69202;45.498;-73.582;2023-07-22T08:16:08;99738.03;;;20.68;73.19
79006;BME280;69202;45.498;-73.582;2023-07-22T08:18:34;99750.72;;;20.64;73.52
79006;BME280;69202;45.498;-73.582;2023-07-22T08:21:02;99771.31;;;20.90;73.58
79006;BME280;69202;45.498;-73.582;2023-07-22T08:23:29;99546.22;;;19.40;73.48
79006;BME280;69202;45.498;-73.582;2023-07-22T08:25:55;99535.41;;;19.20;73.42
79006;BME280;69202;45.498;-73.582;2023-07-22T08:28:20;99494.41;;;19.04;73.46
79006;BME280;69202;45.498;-73.582;2023-07-22T08:30:49;99579.53;;;19.57;73.60
79006;BME280;69202;45.498;-73.582;2023-07-22T08:33:18;99723.44;;;20.38;73.68
79006;BME280;69202;45.498;-73.582;2023-07-22T08:35:44;99568.34;;;19.49;73.73
79006;BME280;69202;45.498;-73.582;2023-07-22T08:38:13;99657.72;;;19.89;73.27
79006;BME280;69202;45.498;-73.582;2023-07-22T08:40:40;99747.81;;;20.50;73.49
79006;BME280;69202;45.498;-73.582;2023-07-22T08:43:08;99563.34;;;19.17;73.14
79006;BME280;69202;45.498;-73.582;2023-07-22T08:45:36;99556.88;;;19.08;72.28
79006;BME280;69202;45.498;-73.582;2023-07-22T08:48:06;99680.41;;;20.00;72.51
79006;BME280;69202;45.498;-73.582;2023-07-22T08:50:44;99741.25;;;20.46;72.47
79006;BME280;69202;45.498;-73.582;2023-07-22T08:53:11;99569.50;;;19.38;72.84
79006;BME280;69202;45.498;-73.582;2023-07-22T08:55:38;99620.69;;;19.52;72.89
79006;BME280;69202;45.498;-73.582;2023-07-22T08:58:11;99653.69;;;19.81;73.53
79006;BME280;69202;45.498;-73.582;2023-07-22T09:00:39;99591.63;;;19.51;73.64
79006;BME280;69202;45.498;-73.582;2023-07-22T09:03:06;99568.75;;;19.32;73.30
79006;BME280;69202;45.498;-73.582;2023-07-22T09:05:33;99497.91;;;18.76;72.19
79006;BME280;69202;45.498;-73.582;2023-07-22T09:08:01;99703.06;;;20.15;72.47
79006;BME280;69202;45.498;-73.582;2023-07-22T09:10:27;99762.94;;;20.48;72.69
79006;BME280;69202;45.498;-73.582;2023-07-22T09:12:54;99798.22;;;20.64;72.90
79006;BME280;69202;45.498;-73.582;2023-07-22T09:15:20;99791.34;;;20.67;73.73
79006;BME280;69202;45.498;-73.582;2023-07-22T09:17:47;99436.28;;;18.19;73.20
79006;BME280;69202;45.498;-73.582;2023-07-22T09:20:14;99512.88;;;18.89;73.49
79006;BME280;69202;45.498;-73.582;2023-07-22T09:22:47;99660.53;;;19.79;73.68
79006;BME280;69202;45.498;-73.582;2023-07-22T09:25:21;99657.84;;;19.74;73.52
79006;BME280;69202;45.498;-73.582;2023-07-22T09:27:52;99677.50;;;19.86;73.58
79006;BME280;69202;45.498;-73.582;2023-07-22T09:30:30;99592.31;;;19.33;73.60
79006;BME280;69202;45.498;-73.582;2023-07-22T09:32:57;99657.63;;;19.70;73.13
79006;BME280;69202;45.498;-73.582;2023-07-22T09:35:31;99786.84;;;20.47;73.44
79006;BME280;69202;45.498;-73.582;2023-07-22T09:37:58;99675.19;;;19.64;73.58
79006;BME280;69202;45.498;-73.582;2023-07-22T09:40:26;99718.41;;;19.82;73.62
79006;BME280;69202;45.498;-73.582;2023-07-22T09:42:56;99824.38;;;20.57;74.13
79006;BME280;69202;45.498;-73.582;2023-07-22T09:45:24;99446.59;;;18.37;73.94
79006;BME280;69202;45.498;-73.582;2023-07-22T09:47:52;99493.28;;;18.66;73.75
79006;BME280;69202;45.498;-73.582;2023-07-22T09:50:23;99762.41;;;20.11;73.76
79006;BME280;69202;45.498;-73.582;2023-07-22T09:52:54;99638.78;;;19.48;73.58
79006;BME280;69202;45.498;-73.582;2023-07-22T09:55:26;99812.53;;;20.61;74.09
79006;BME280;69202;45.498;-73.582;2023-07-22T09:58:03;99815.03;;;20.58;73.79
79006;BME280;69202;45.498;-73.582;2023-07-22T10:00:35;99807.09;;;20.56;74.25
79006;BME280;69202;45.498;-73.582;2023-07-22T10:03:03;99776.28;;;20.25;74.45
79006;BME280;69202;45.498;-73.582;2023-07-22T10:05:34;99697.50;;;19.92;74.20
79006;BME280;69202;45.498;-73.582;2023-07-22T10:08:02;99642.00;;;19.21;73.06
79006;BME280;69202;45.498;-73.582;2023-07-22T10:10:36;99779.19;;;20.39;72.56
79006;BME280;69202;45.498;-73.582;2023-07-22T10:13:03;99684.69;;;19.77;71.45
79006;BME280;69202;45.498;-73.582;2023-07-22T10:15:31;99741.69;;;20.24;71.14
79006;BME280;69202;45.498;-73.582;2023-07-22T10:18:00;99796.88;;;20.62;72.00
79006;BME280;69202;45.498;-73.582;2023-07-22T10:20:26;99805.81;;;20.72;72.45
79006;BME280;69202;45.498;-73.582;2023-07-22T10:22:54;99818.91;;;20.86;72.51
79006;BME280;69202;45.498;-73.582;2023-07-22T10:25:21;99669.34;;;19.81;73.05
79006;BME280;69202;45.498;-73.582;2023-07-22T10:27:49;99816.50;;;20.79;73.48
79006;BME280;69202;45.498;-73.582;2023-07-22T10:30:16;99710.97;;;20.22;73.68
79006;BME280;69202;45.498;-73.582;2023-07-22T10:32:47;99783.63;;;20.69;73.57
79006;BME280;69202;45.498;-73.582;2023-07-22T10:35:34;99808.78;;;20.81;73.72
79006;BME280;69202;45.498;-73.582;2023-07-22T10:38:07;99809.59;;;20.82;73.84
79006;BME280;69202;45.498;-73.582;2023-07-22T10:41:11;99790.53;;;20.61;73.44
79006;BME280;69202;45.498;-73.582;2023-07-22T10:43:33;99816.06;;;20.67;73.00
79006;BME280;69202;45.498;-73.582;2023-07-22T10:46:06;99803.81;;;20.54;72.99
79006;BME280;69202;45.498;-73.582;2023-07-22T10:48:37;99825.34;;;20.71;73.29
79006;BME280;69202;45.498;-73.582;2023-07-22T10:51:10;99824.22;;;20.77;73.14
79006;BME280;69202;45.498;-73.582;2023-07-22T10:53:47;99765.81;;;20.32;73.02
79006;BME280;69202;45.498;-73.582;2023-07-22T10:56:21;99778.06;;;20.45;72.98
79006;BME280;69202;45.498;-73.582;2023-07-22T11:04:24;99840.16;;;21.04;71.75
79006;BME280;69202;45.498;-73.582;2023-07-22T11:07:04;99843.97;;;21.08;71.68
79006;BME280;69202;45.498;-73.582;2023-07-22T11:14:34;99858.81;;;21.36;71.57
79006;BME280;69202;45.498;-73.582;2023-07-22T11:17:02;99882.19;;;21.39;71.11
79006;BME280;69202;45.498;-73.582;2023-07-22T11:19:32;99802.63;;;21.18;71.18
79006;BME280;69202;45.498;-73.582;2023-07-22T11:22:01;99759.16;;;20.96;70.36
79006;BME280;69202;45.498;-73.582;2023-07-22T11:24:28;99867.00;;;21.65;70.98
79006;BME280;69202;45.498;-73.582;2023-07-22T11:26:54;99800.44;;;21.15;70.45
79006;BME280;69202;45.498;-73.582;2023-07-22T11:29:20;99866.44;;;21.68;69.43
79006;BME280;69202;45.498;-73.582;2023-07-22T11:31:48;99836.19;;;21.68;68.97
79006;BME280;69202;45.498;-73.582;2023-07-22T11:34:22;99865.59;;;21.92;68.74
79006;BME280;69202;45.498;-73.582;2023-07-22T11:36:49;99874.28;;;21.99;67.97
79006;BME280;69202;45.498;-73.582;2023-07-22T11:39:21;99871.56;;;21.75;68.54
79006;BME280;69202;45.498;-73.582;2023-07-22T11:41:48;99744.44;;;20.87;68.57
79006;BME280;69202;45.498;-73.582;2023-07-22T11:44:17;99782.09;;;21.11;68.70
79006;BME280;69202;45.498;-73.582;2023-07-22T11:46:54;99889.97;;;21.79;68.22
79006;BME280;69202;45.498;-73.582;2023-07-22T11:49:34;99884.00;;;21.72;66.67
79006;BME280;69202;45.498;-73.582;2023-07-22T11:52:04;99900.16;;;21.55;66.21
79006;BME280;69202;45.498;-73.582;2023-07-22T11:54:35;99893.91;;;21.49;66.63
79006;BME280;69202;45.498;-73.582;2023-07-22T11:57:15;99845.84;;;21.13;67.98
79006;BME280;69202;45.498;-73.582;2023-07-22T11:59:45;99781.19;;;20.91;67.62
79006;BME280;69202;45.498;-73.582;2023-07-22T12:02:22;99870.19;;;21.53;68.30
79006;BME280;69202;45.498;-73.582;2023-07-22T12:05:00;99904.19;;;21.63;68.64
79006;BME280;69202;45.498;-73.582;2023-07-22T12:07:34;99848.19;;;21.29;68.72
79006;BME280;69202;45.498;-73.582;2023-07-22T12:10:02;99905.38;;;21.80;67.90
79006;BME280;69202;45.498;-73.582;2023-07-22T12:12:45;99848.56;;;21.66;66.10
79006;BME280;69202;45.498;-73.582;2023-07-22T12:15:16;99897.38;;;22.03;65.50
79006;BME280;69202;45.498;-73.582;2023-07-22T12:17:52;99912.06;;;22.17;65.12
79006;BME280;69202;45.498;-73.582;2023-07-22T12:20:19;99795.25;;;21.61;65.65
79006;BME280;69202;45.498;-73.582;2023-07-22T12:22:45;99906.91;;;22.53;65.96
79006;BME280;69202;45.498;-73.582;2023-07-22T12:25:11;99914.47;;;22.61;65.22
79006;BME280;69202;45.498;-73.582;2023-07-22T12:27:37;99878.22;;;22.54;64.92
79006;BME280;69202;45.498;-73.582;2023-07-22T12:30:05;99906.94;;;23.04;64.75
79006;BME280;69202;45.498;-73.582;2023-07-22T12:32:31;99845.53;;;22.80;64.25
79006;BME280;69202;45.498;-73.582;2023-07-22T12:34:57;99846.69;;;22.60;63.93
79006;BME280;69202;45.498;-73.582;2023-07-22T12:37:23;99932.41;;;23.29;63.97
79006;BME280;69202;45.498;-73.582;2023-07-22T12:39:48;99905.44;;;23.26;62.83
79006;BME280;69202;45.498;-73.582;2023-07-22T12:42:14;99876.47;;;22.96;61.91
79006;BME280;69202;45.498;-73.582;2023-07-22T12:44:40;99915.56;;;22.98;63.61
79006;BME280;69202;45.498;-73.582;2023-07-22T12:47:06;99923.16;;;23.06;64.19
79006;BME280;69202;45.498;-73.582;2023-07-22T12:49:33;99916.78;;;22.92;63.44
79006;BME280;69202;45.498;-73.582;2023-07-22T12:51:59;99917.72;;;23.01;64.55
79006;BME280;69202;45.498;-73.582;2023-07-22T12:54:32;99896.13;;;22.70;64.16